createdAt,value
2023-04-24T00:02:59.089Z,100298.63
2023-04-24T00:07:12.783Z,100290.94
2023-04-24T00:11:25.517Z,100289.88
2023-04-24T00:15:38.087Z,100283.38
2023-04-24T00:19:52.570Z,100281.97
2023-04-24T00:24:05.386Z,100286.50
2023-04-24T00:28:17.701Z,100279.16
2023-04-24T00:32:30.108Z,100281.97
2023-04-24T00:36:42.527Z,100266.81
2023-04-24T00:40:55.540Z,100264.50
2023-04-24T00:45:08.840Z,100260.44
2023-04-24T00:49:21.988Z,100254.28
2023-04-24T00:53:34.449Z,100250.50
2023-04-24T00:57:47.017Z,100245.31
2023-04-24T01:01:59.898Z,100250.75
2023-04-24T01:06:12.548Z,100248.44
2023-04-24T01:10:27.029Z,100237.81
2023-04-24T01:14:39.658Z,100242.13
2023-04-24T01:18:52.520Z,100250.41
2023-04-24T01:23:05.000Z,100238.81
2023-04-24T01:27:17.450Z,100249.19
2023-04-24T01:31:32.200Z,100254.28
2023-04-24T01:35:44.664Z,100253.31
2023-04-24T01:39:57.032Z,100247.97
2023-04-24T01:44:11.558Z,100253.38
2023-04-24T01:48:24.014Z,100243.63
2023-04-24T01:52:37.381Z,100250.84
2023-04-24T01:56:50.164Z,100237.69
2023-04-24T02:01:02.496Z,100245.13
2023-04-24T02:05:14.995Z,100246.09
2023-04-24T02:09:27.526Z,100238.09
2023-04-24T02:13:39.909Z,100232.88
2023-04-24T02:17:52.333Z,100232.97
2023-04-24T02:22:04.769Z,100230.84
2023-04-24T02:26:17.713Z,100232.69
2023-04-24T02:30:30.204Z,100227.25
2023-04-24T02:34:42.633Z,100210.63
2023-04-24T02:38:55.031Z,100210.56
2023-04-24T02:43:07.250Z,100208.75
2023-04-24T02:47:19.738Z,100217.09
2023-04-24T02:51:32.368Z,100214.44
2023-04-24T02:55:44.910Z,100211.34
2023-04-24T02:59:57.327Z,100222.94
2023-04-24T03:04:09.744Z,100224.84
2023-04-24T03:08:22.357Z,100216.97
2023-04-24T03:12:34.718Z,100221.38
2023-04-24T03:16:47.108Z,100221.06
2023-04-24T03:20:59.660Z,100212.22
2023-04-24T03:25:12.327Z,100209.75
2023-04-24T03:29:24.867Z,100221.16
2023-04-24T03:33:37.365Z,100227.25
2023-04-24T03:37:49.885Z,100224.84
2023-04-24T03:42:20.665Z,100220.97
2023-04-24T03:46:39.933Z,100205.91
2023-04-24T03:50:52.809Z,100217.34
2023-04-24T03:55:07.712Z,100214.66
2023-04-24T03:59:26.414Z,100207.59
2023-04-24T04:03:52.519Z,100217.19
2023-04-24T04:08:08.591Z,100210.03
2023-04-24T04:12:21.074Z,100207.19
2023-04-24T04:16:34.148Z,100207.28
2023-04-24T04:20:48.857Z,100217.81
2023-04-24T04:25:02.168Z,100208.03
2023-04-24T04:29:18.437Z,100212.50
2023-04-24T04:33:33.094Z,100214.97
2023-04-24T04:37:45.950Z,100218.34
2023-04-24T04:42:14.911Z,100225.50
2023-04-24T04:46:33.768Z,100214.00
2023-04-24T04:50:56.920Z,100189.81
2023-04-24T04:55:10.435Z,100191.34
2023-04-24T04:59:43.572Z,100196.31
2023-04-24T05:04:02.634Z,100197.06
2023-04-24T05:12:33.818Z,100198.31
2023-04-24T05:16:48.505Z,100205.66
2023-04-24T05:21:02.797Z,100212.16
2023-04-24T05:25:15.411Z,100212.13
2023-04-24T05:29:48.014Z,100216.56
2023-04-24T05:34:00.658Z,100209.00
2023-04-24T05:38:14.187Z,100200.00
2023-04-24T05:42:26.594Z,100202.72
2023-04-24T05:46:39.212Z,100201.75
2023-04-24T05:50:52.101Z,100202.19
2023-04-24T05:55:04.839Z,100204.75
2023-04-24T05:59:20.278Z,100207.56
2023-04-24T06:03:34.286Z,100201.13
2023-04-24T06:07:50.033Z,100211.31
2023-04-24T06:12:03.808Z,100209.22
2023-04-24T06:16:31.831Z,100205.34
2023-04-24T06:20:49.857Z,100192.19
2023-04-24T06:25:02.717Z,100190.72
2023-04-24T06:29:15.172Z,100188.84
2023-04-24T06:33:27.799Z,100188.34
2023-04-24T06:37:41.716Z,100176.97
2023-04-24T06:41:54.088Z,100181.63
2023-04-24T06:46:06.676Z,100179.16
2023-04-24T06:50:19.312Z,100180.66
2023-04-24T06:54:33.194Z,100183.84
2023-04-24T06:58:46.511Z,100178.88
2023-04-24T07:02:58.943Z,100182.81
2023-04-24T07:07:15.395Z,100182.81
2023-04-24T07:11:30.479Z,100179.81
2023-04-24T07:15:43.058Z,100180.47
2023-04-24T07:19:55.466Z,100173.59
2023-04-24T07:24:12.022Z,100178.53
2023-04-24T07:28:24.539Z,100178.06
2023-04-24T07:32:37.027Z,100173.78
2023-04-24T07:36:49.583Z,100163.91
2023-04-24T07:41:01.944Z,100162.78
2023-04-24T07:45:14.308Z,100174.38
2023-04-24T07:49:26.852Z,100168.63
2023-04-24T07:53:39.213Z,100165.44
2023-04-24T07:57:52.403Z,100171.84
2023-04-24T08:02:04.909Z,100165.78
2023-04-24T08:06:17.387Z,100170.66
2023-04-24T08:10:29.807Z,100160.09
2023-04-24T08:14:42.652Z,100168.97
2023-04-24T08:18:55.339Z,100172.16
2023-04-24T08:23:07.825Z,100175.19
2023-04-24T08:27:20.255Z,100169.34
2023-04-24T08:31:32.679Z,100171.47
2023-04-24T08:35:45.118Z,100169.47
2023-04-24T08:39:57.619Z,100154.47
2023-04-24T08:44:11.393Z,100157.47
2023-04-24T08:48:30.980Z,100148.25
2023-04-24T08:52:44.510Z,100147.78
2023-04-24T08:57:02.622Z,100149.28
2023-04-24T09:01:15.636Z,100132.59
2023-04-24T09:05:29.423Z,100126.00
2023-04-24T09:09:43.426Z,100124.97
2023-04-24T09:13:57.434Z,100115.25
2023-04-24T09:18:09.904Z,100121.78
2023-04-24T09:22:23.024Z,100111.19
2023-04-24T09:26:38.487Z,100111.84
2023-04-24T09:31:19.416Z,100108.88
2023-04-24T09:35:33.720Z,100094.09
2023-04-24T09:39:46.173Z,100089.56
2023-04-24T09:44:11.924Z,100081.69
2023-04-24T09:48:38.404Z,100073.22
2023-04-24T09:53:03.036Z,100075.97
2023-04-24T09:57:16.275Z,100064.28
2023-04-24T10:01:33.384Z,100080.19
2023-04-24T10:05:48.662Z,100059.34
2023-04-24T10:10:01.871Z,100064.34
2023-04-24T10:14:25.699Z,100060.34
2023-04-24T10:18:38.875Z,100059.50
2023-04-24T10:22:53.270Z,100048.06
2023-04-24T10:27:07.304Z,100047.50
2023-04-24T10:31:20.866Z,100049.19
2023-04-24T10:35:36.411Z,100045.69
2023-04-24T10:39:52.352Z,100039.53
2023-04-24T10:44:17.019Z,100035.06
2023-04-24T10:48:31.448Z,100032.50
2023-04-24T10:52:52.550Z,100032.94
2023-04-24T10:57:23.638Z,100022.41
2023-04-24T11:01:39.937Z,100033.94
2023-04-24T11:05:54.587Z,100018.69
2023-04-24T11:10:07.669Z,100019.28
2023-04-24T11:14:20.443Z,100008.66
2023-04-24T11:18:40.530Z,100010.50
2023-04-24T11:22:56.048Z,100007.44
2023-04-24T11:27:15.559Z,100001.72
2023-04-24T11:31:40.816Z,100006.19
2023-04-24T11:35:53.719Z,100000.13
2023-04-24T11:40:07.798Z,99998.63
2023-04-24T11:44:22.312Z,100002.03
2023-04-24T11:48:41.237Z,99999.16
2023-04-24T11:52:53.825Z,100007.38
2023-04-24T11:57:07.997Z,99996.78
2023-04-24T12:01:20.545Z,99991.16
2023-04-24T12:05:33.465Z,99996.13
2023-04-24T12:09:48.155Z,100001.56
2023-04-24T12:14:11.891Z,100010.06
2023-04-24T12:18:25.278Z,100014.38
2023-04-24T12:22:57.564Z,100017.84
2023-04-24T12:27:21.288Z,100027.28
2023-04-24T12:31:34.135Z,100016.94
2023-04-24T12:35:47.036Z,100020.06
2023-04-24T12:40:01.827Z,100022.81
2023-04-24T12:44:14.451Z,100014.66
2023-04-24T12:48:28.213Z,100007.63
2023-04-24T12:52:41.561Z,99987.91
2023-04-24T12:56:56.833Z,99977.84
2023-04-24T13:01:09.344Z,99968.38
2023-04-24T13:05:23.541Z,99981.16
2023-04-24T13:09:37.374Z,99965.47
2023-04-24T13:13:49.802Z,99949.28
2023-04-24T13:18:02.431Z,99946.06
2023-04-24T13:22:15.134Z,99942.75
2023-04-24T13:26:27.446Z,99944.19
2023-04-24T13:30:40.016Z,99927.97
2023-04-24T13:34:52.512Z,99905.63
2023-04-24T13:39:06.589Z,99914.69
2023-04-24T13:43:18.999Z,99935.97
2023-04-24T13:47:31.408Z,99931.53
2023-04-24T13:51:44.456Z,99930.16
2023-04-24T13:55:57.294Z,99918.19
2023-04-24T14:00:11.898Z,99915.75
2023-04-24T14:04:24.597Z,99898.16
2023-04-24T14:08:37.331Z,99885.31
2023-04-24T14:12:49.767Z,99886.47
2023-04-24T14:17:02.152Z,99887.91
2023-04-24T14:21:14.648Z,99873.22
2023-04-24T14:25:27.657Z,99861.97
2023-04-24T14:29:40.080Z,99861.53
2023-04-24T14:33:52.603Z,99858.91
2023-04-24T14:38:05.034Z,99860.94
2023-04-24T14:42:18.498Z,99852.75
2023-04-24T14:46:34.395Z,99860.81
2023-04-24T14:50:47.174Z,99844.06
2023-04-24T14:54:59.658Z,99836.75
2023-04-24T14:59:12.413Z,99840.03
2023-04-24T15:03:25.239Z,99842.28
2023-04-24T15:07:38.753Z,99855.75
2023-04-24T15:11:52.229Z,99858.91
2023-04-24T15:16:04.752Z,99846.00
2023-04-24T15:20:17.550Z,99829.72
2023-04-24T15:24:30.102Z,99825.78
2023-04-24T15:28:42.673Z,99840.25
2023-04-24T15:32:55.403Z,99832.91
2023-04-24T15:37:07.937Z,99841.28
2023-04-24T15:41:20.333Z,99831.59
2023-04-24T15:45:33.927Z,99828.16
2023-04-24T15:49:46.497Z,99826.53
2023-04-24T15:53:58.938Z,99827.84
2023-04-24T15:58:11.650Z,99822.88
2023-04-24T16:02:24.482Z,99827.25
2023-04-24T16:06:37.126Z,99831.16
2023-04-24T16:10:49.698Z,99849.78
2023-04-24T16:15:02.263Z,99834.75
2023-04-24T16:19:14.654Z,99848.09
2023-04-24T16:23:27.099Z,99840.38
2023-04-24T16:27:39.590Z,99850.47
2023-04-24T16:31:52.641Z,99840.47
2023-04-24T16:36:07.361Z,99853.06
2023-04-24T16:40:21.044Z,99869.28
2023-04-24T16:44:33.491Z,99865.91
2023-04-24T16:48:46.251Z,99859.84
2023-04-24T16:52:58.784Z,99889.78
2023-04-24T16:57:11.318Z,99878.78
2023-04-24T17:01:24.513Z,99861.81
2023-04-24T17:05:37.071Z,99868.34
2023-04-24T17:09:49.569Z,99861.31
2023-04-24T17:14:01.897Z,99842.31
2023-04-24T17:18:14.432Z,99829.59
2023-04-24T17:22:27.036Z,99839.19
2023-04-24T17:26:39.330Z,99850.94
2023-04-24T17:30:51.800Z,99850.22
2023-04-24T17:35:04.475Z,99848.56
2023-04-24T17:39:17.395Z,99850.78
2023-04-24T17:43:29.860Z,99851.13
2023-04-24T17:47:42.752Z,99863.59
2023-04-24T17:51:55.506Z,99862.75
2023-04-24T17:56:08.420Z,99881.25
2023-04-24T18:00:21.199Z,99887.22
2023-04-24T18:04:33.885Z,99890.09
2023-04-24T18:08:46.785Z,99903.25
2023-04-24T18:13:00.017Z,99913.13
2023-04-24T18:17:12.603Z,99950.16
2023-04-24T18:21:25.414Z,99954.28
2023-04-24T18:25:38.767Z,99928.25
2023-04-24T18:29:54.271Z,99925.69
2023-04-24T18:34:06.612Z,99916.34
2023-04-24T18:38:19.066Z,99908.47
2023-04-24T18:42:31.536Z,99896.78
2023-04-24T18:46:43.954Z,99888.16
2023-04-24T18:50:56.336Z,99880.41
2023-04-24T18:55:10.088Z,99864.41
2023-04-24T18:59:22.704Z,99851.75
2023-04-24T19:03:35.241Z,99846.34
2023-04-24T19:07:47.790Z,99849.88
2023-04-24T19:12:01.999Z,99862.44
2023-04-24T19:16:14.527Z,99854.00
2023-04-24T19:20:27.435Z,99854.25
2023-04-24T19:24:39.867Z,99859.09
2023-04-24T19:28:53.928Z,99857.50
2023-04-24T19:33:06.703Z,99857.91
2023-04-24T19:37:19.185Z,99871.94
2023-04-24T19:41:31.578Z,99878.72
2023-04-24T19:45:44.966Z,99882.50
2023-04-24T19:49:57.397Z,99892.41
2023-04-24T19:54:09.768Z,99896.16
2023-04-24T19:58:22.156Z,99902.78
2023-04-24T20:02:36.933Z,99892.81
2023-04-24T20:06:50.097Z,99894.25
2023-04-24T20:11:02.533Z,99890.97
2023-04-24T20:15:15.045Z,99887.75
2023-04-24T20:19:27.729Z,99889.28
2023-04-24T20:23:40.778Z,99891.66
2023-04-24T20:27:53.812Z,99896.72
2023-04-24T20:32:07.256Z,99895.44
2023-04-24T20:36:19.682Z,99914.09
2023-04-24T20:40:32.071Z,99929.81
2023-04-24T20:44:45.838Z,99890.75
2023-04-24T20:48:58.298Z,99866.56
2023-04-24T20:53:10.945Z,99873.44
2023-04-24T20:57:23.423Z,99914.84
2023-04-24T21:01:35.855Z,99938.09
2023-04-24T21:05:48.302Z,99922.13
2023-04-24T21:10:01.679Z,99938.47
2023-04-24T21:14:14.120Z,99948.09
2023-04-24T21:18:26.743Z,99953.31
2023-04-24T21:22:39.100Z,99929.75
2023-04-24T21:26:51.789Z,99955.72
2023-04-24T21:31:04.246Z,99988.00
2023-04-24T21:35:16.680Z,99957.34
2023-04-24T21:39:29.076Z,99941.13
2023-04-24T21:43:44.476Z,99941.16
2023-04-24T21:47:59.927Z,99929.78
2023-04-24T21:52:13.997Z,99938.22
2023-04-24T21:56:28.692Z,99965.81
2023-04-24T22:00:41.138Z,99923.41
2023-04-24T22:04:56.679Z,99911.28
2023-04-24T22:09:09.158Z,99890.44
2023-04-24T22:13:21.535Z,99879.22
2023-04-24T22:17:34.400Z,99866.78
2023-04-24T22:21:46.845Z,99886.50
2023-04-24T22:25:59.100Z,99886.69
2023-04-24T22:30:11.799Z,99868.50
2023-04-24T22:34:24.125Z,99867.97
2023-04-24T22:38:36.589Z,99874.22
2023-04-24T22:42:48.904Z,99863.78
2023-04-24T22:47:01.296Z,99847.56
2023-04-24T22:51:13.630Z,99836.41
2023-04-24T22:55:26.046Z,99843.72
2023-04-24T22:59:38.711Z,99849.63
2023-04-24T23:03:51.824Z,99837.06
2023-04-24T23:08:04.658Z,99825.06
2023-04-24T23:12:16.887Z,99834.09
2023-04-24T23:16:31.275Z,99831.59
2023-04-24T23:20:43.698Z,99831.66
2023-04-24T23:24:56.300Z,99841.31
2023-04-24T23:29:08.589Z,99838.09
2023-04-24T23:33:21.014Z,99837.06
2023-04-24T23:37:33.424Z,99834.34
2023-04-24T23:41:46.533Z,99831.69
2023-04-24T23:45:58.914Z,99819.59
2023-04-24T23:50:11.875Z,99824.97
2023-04-24T23:54:24.323Z,99832.38
2023-04-24T23:58:37.176Z,99844.91
